createdAt,value
2022-11-24T00:00:06.626Z,101735.44
2022-11-24T00:01:11.322Z,101736.41
2022-11-24T00:02:13.319Z,101733.88
2022-11-24T00:03:15.366Z,101728.63
2022-11-24T00:04:17.257Z,101718.31
2022-11-24T00:05:19.200Z,101724.00
2022-11-24T00:06:21.353Z,101719.88
2022-11-24T00:07:23.293Z,101724.97
2022-11-24T00:08:25.065Z,101726.69
2022-11-24T00:09:26.922Z,101714.06
2022-11-24T00:10:28.674Z,101730.34
2022-11-24T00:11:33.057Z,101715.41
2022-11-24T00:12:34.887Z,101715.41
2022-11-24T00:13:40.239Z,101711.03
2022-11-24T00:14:42.030Z,101717.94
2022-11-24T00:15:43.821Z,101718.91
2022-11-24T00:16:45.741Z,101716.22
2022-11-24T00:17:47.523Z,101719.88
2022-11-24T00:18:51.766Z,101715.50
2022-11-24T00:19:53.585Z,101715.50
2022-11-24T00:20:55.310Z,101722.69
2022-11-24T00:21:57.146Z,101726.34
2022-11-24T00:22:58.964Z,101727.19
2022-11-24T00:24:01.181Z,101726.34
2022-11-24T00:25:03.001Z,101734.47
2022-11-24T00:26:13.981Z,101737.16
2022-11-24T00:27:15.827Z,101728.88
2022-11-24T00:28:17.594Z,101726.34
2022-11-24T00:29:19.353Z,101736.19
2022-11-24T00:30:21.288Z,101741.66
2022-11-24T00:31:24.916Z,101735.59
2022-11-24T00:32:30.709Z,101734.97
2022-11-24T00:33:32.794Z,101739.00
2022-11-24T00:34:34.927Z,101740.78
2022-11-24T00:35:36.984Z,101734.72
2022-11-24T00:36:39.121Z,101721.59
2022-11-24T00:37:40.854Z,101728.53
2022-11-24T00:38:43.215Z,101734.97
2022-11-24T00:39:45.079Z,101733.03
2022-11-24T00:40:46.915Z,101733.88
2022-11-24T00:41:48.653Z,101742.03
2022-11-24T00:42:50.404Z,101733.03
2022-11-24T00:43:52.776Z,101739.34
2022-11-24T00:44:54.509Z,101737.63
2022-11-24T00:45:56.386Z,101736.66
2022-11-24T00:46:58.873Z,101740.31
2022-11-24T00:48:00.697Z,101736.91
2022-11-24T00:49:02.742Z,101733.50
2022-11-24T00:50:04.868Z,101738.63
2022-11-24T00:51:09.709Z,101725.25
2022-11-24T00:52:11.570Z,101743.97
2022-11-24T00:53:13.399Z,101743.09
2022-11-24T00:54:15.146Z,101742.25
2022-11-24T00:55:16.951Z,101736.66
2022-11-24T00:56:19.358Z,101747.59
2022-11-24T00:57:21.217Z,101729.63
2022-11-24T00:58:24.552Z,101744.22
2022-11-24T00:59:26.494Z,101745.91
2022-11-24T01:00:28.230Z,101745.03
2022-11-24T01:01:31.580Z,101735.22
2022-11-24T01:02:33.556Z,101734.34
2022-11-24T01:03:35.469Z,101733.50
2022-11-24T01:04:37.324Z,101720.88
2022-11-24T01:05:39.953Z,101724.13
2022-11-24T01:06:41.845Z,101737.16
2022-11-24T01:07:44.031Z,101738.00
2022-11-24T01:08:46.704Z,101736.28
2022-11-24T01:09:48.528Z,101727.53
2022-11-24T01:10:50.409Z,101738.13
2022-11-24T01:12:01.405Z,101743.34
2022-11-24T01:13:03.731Z,101740.56
2022-11-24T01:14:05.705Z,101743.34
2022-11-24T01:15:07.914Z,101742.50
2022-11-24T01:16:19.102Z,101740.81
2022-11-24T01:17:21.044Z,101738.84
2022-11-24T01:18:22.899Z,101736.28
2022-11-24T01:19:24.849Z,101736.44
2022-11-24T01:20:26.721Z,101737.41
2022-11-24T01:21:28.462Z,101740.06
2022-11-24T01:22:30.511Z,101746.25
2022-11-24T01:23:32.516Z,101741.03
2022-11-24T01:24:34.414Z,101738.38
2022-11-24T01:25:39.798Z,101739.34
2022-11-24T01:26:42.318Z,101733.28
2022-11-24T01:27:44.110Z,101748.94
2022-11-24T01:28:47.704Z,101747.22
2022-11-24T01:29:49.770Z,101742.84
2022-11-24T01:31:02.588Z,101746.41
2022-11-24T01:32:04.698Z,101755.97
2022-11-24T01:33:06.457Z,101738.84
2022-11-24T01:34:08.261Z,101751.13
2022-11-24T01:35:10.208Z,101741.28
2022-11-24T01:36:12.569Z,101752.00
2022-11-24T01:37:14.459Z,101749.19
2022-11-24T01:38:16.223Z,101744.94
2022-11-24T01:39:18.057Z,101746.63
2022-11-24T01:40:19.987Z,101745.91
2022-11-24T01:41:23.802Z,101740.91
2022-11-24T01:42:25.734Z,101749.31
2022-11-24T01:43:27.565Z,101735.69
2022-11-24T01:44:31.468Z,101748.59
2022-11-24T01:45:41.824Z,101732.06
2022-11-24T01:46:47.752Z,101749.19
2022-11-24T01:47:49.840Z,101749.19
2022-11-24T01:49:11.716Z,101748.34
2022-11-24T01:50:16.818Z,101753.44
2022-11-24T01:51:25.566Z,101748.19
2022-11-24T01:52:38.367Z,101744.81
2022-11-24T01:53:44.226Z,101749.06
2022-11-24T01:54:51.768Z,101751.13
2022-11-24T01:55:53.732Z,101753.69
2022-11-24T01:57:01.651Z,101745.78
2022-11-24T01:58:14.564Z,101750.03
2022-11-24T01:59:19.367Z,101725.94
2022-11-24T02:00:21.172Z,101752.81
2022-11-24T02:01:23.683Z,101742.59
2022-11-24T02:02:29.951Z,101746.88
2022-11-24T02:03:37.998Z,101746.97
2022-11-24T02:04:40.834Z,101748.59
2022-11-24T02:06:04.820Z,101744.22
2022-11-24T02:07:07.654Z,101738.13
2022-11-24T02:08:21.364Z,101744.94
2022-11-24T02:09:33.914Z,101727.78
2022-11-24T02:10:37.126Z,101734.72
2022-11-24T02:11:40.793Z,101748.59
2022-11-24T02:12:46.473Z,101742.50
2022-11-24T02:13:50.077Z,101736.63
2022-11-24T02:14:53.978Z,101747.13
2022-11-24T02:15:56.010Z,101746.16
2022-11-24T02:16:57.921Z,101744.44
2022-11-24T02:17:59.693Z,101742.75
2022-11-24T02:19:03.552Z,101749.06
2022-11-24T02:20:09.083Z,101742.22
2022-11-24T02:21:13.830Z,101733.72
2022-11-24T02:22:22.206Z,101748.09
2022-11-24T02:23:33.502Z,101748.09
2022-11-24T02:24:37.982Z,101748.81
2022-11-24T02:25:48.702Z,101754.28
2022-11-24T02:26:52.157Z,101748.19
2022-11-24T02:27:56.107Z,101755.16
2022-11-24T02:28:58.027Z,101748.19
2022-11-24T02:29:59.852Z,101719.81
2022-11-24T02:31:02.988Z,101742.13
2022-11-24T02:32:07.593Z,101746.59
2022-11-24T02:33:10.425Z,101750.97
2022-11-24T02:34:12.205Z,101756.31
2022-11-24T02:35:14.838Z,101759.97
2022-11-24T02:36:16.609Z,101752.19
2022-11-24T02:37:18.412Z,101752.91
2022-11-24T02:38:29.869Z,101749.41
2022-11-24T02:39:31.637Z,101756.22
2022-11-24T02:40:33.760Z,101758.03
2022-11-24T02:41:35.738Z,101743.81
2022-11-24T02:42:42.902Z,101752.91
2022-11-24T02:43:54.550Z,101750.97
2022-11-24T02:45:00.033Z,101749.16
2022-11-24T02:46:01.892Z,101744.66
2022-11-24T02:47:06.931Z,101747.47
2022-11-24T02:48:08.768Z,101748.31
2022-11-24T02:49:10.558Z,101736.38
2022-11-24T02:50:13.117Z,101743.09
2022-11-24T02:51:15.123Z,101740.66
2022-11-24T02:52:17.020Z,101753.78
2022-11-24T02:53:18.764Z,101751.22
2022-11-24T02:54:20.587Z,101752.91
2022-11-24T02:55:23.588Z,101750.38
2022-11-24T02:56:26.561Z,101748.53
2022-11-24T02:57:28.409Z,101750.25
2022-11-24T02:58:30.239Z,101753.78
2022-11-24T02:59:32.217Z,101749.41
2022-11-24T03:00:34.062Z,101758.28
2022-11-24T03:01:35.945Z,101732.34
2022-11-24T03:02:37.987Z,101750.25
2022-11-24T03:03:39.834Z,101757.28
2022-11-24T03:04:41.678Z,101753.78
2022-11-24T03:05:43.428Z,101753.78
2022-11-24T03:06:45.233Z,101755.59
2022-11-24T03:07:47.143Z,101756.56
2022-11-24T03:08:48.903Z,101748.44
2022-11-24T03:09:50.695Z,101754.75
2022-11-24T03:10:52.551Z,101749.41
2022-11-24T03:11:54.310Z,101752.09
2022-11-24T03:12:56.387Z,101746.84
2022-11-24T03:13:59.046Z,101751.34
2022-11-24T03:15:00.828Z,101753.88
2022-11-24T03:16:02.717Z,101744.16
2022-11-24T03:17:04.629Z,101745.16
2022-11-24T03:18:06.469Z,101745.28
2022-11-24T03:19:08.273Z,101754.03
2022-11-24T03:20:10.877Z,101742.09
2022-11-24T03:21:12.705Z,101753.16
2022-11-24T03:22:14.718Z,101747.81
2022-11-24T03:23:16.461Z,101751.69
2022-11-24T03:24:18.289Z,101760.22
2022-11-24T03:25:20.090Z,101759.38
2022-11-24T03:26:24.133Z,101737.69
2022-11-24T03:27:26.057Z,101738.69
2022-11-24T03:28:27.902Z,101735.28
2022-11-24T03:29:30.220Z,101751.34
2022-11-24T03:30:32.127Z,101737.56
2022-11-24T03:31:33.991Z,101746.00
2022-11-24T03:32:35.893Z,101731.50
2022-11-24T03:33:37.977Z,101746.97
2022-11-24T03:34:39.718Z,101721.19
2022-11-24T03:35:43.432Z,101744.31
2022-11-24T03:36:45.242Z,101738.97
2022-11-24T03:37:47.050Z,101746.97
2022-11-24T03:38:49.885Z,101729.69
2022-11-24T03:39:51.639Z,101747.81
2022-11-24T03:40:53.531Z,101746.13
2022-11-24T03:41:55.299Z,101749.75
2022-11-24T03:42:57.244Z,101750.63
2022-11-24T03:43:59.056Z,101753.28
2022-11-24T03:45:16.623Z,101761.31
2022-11-24T03:46:22.650Z,101761.66
2022-11-24T03:47:24.547Z,101753.06
2022-11-24T03:48:26.337Z,101753.16
2022-11-24T03:49:28.166Z,101751.47
2022-11-24T03:50:29.913Z,101755.97
2022-11-24T03:51:31.702Z,101749.97
2022-11-24T03:52:33.537Z,101748.06
2022-11-24T03:53:35.370Z,101754.38
2022-11-24T03:54:37.304Z,101746.34
2022-11-24T03:55:39.097Z,101746.34
2022-11-24T03:56:40.838Z,101744.63
2022-11-24T03:57:42.713Z,101748.06
2022-11-24T03:58:44.485Z,101742.84
2022-11-24T03:59:46.298Z,101741.00
2022-11-24T04:00:53.543Z,101745.53
2022-11-24T04:01:55.358Z,101749.75
2022-11-24T04:02:57.339Z,101747.22
2022-11-24T04:03:59.133Z,101747.22
2022-11-24T04:05:00.885Z,101752.56
2022-11-24T04:06:02.623Z,101757.03
2022-11-24T04:07:04.424Z,101747.28
2022-11-24T04:08:06.491Z,101757.16
2022-11-24T04:09:08.413Z,101740.00
2022-11-24T04:10:10.506Z,101759.81
2022-11-24T04:11:32.281Z,101759.81
2022-11-24T04:12:46.069Z,101758.50
2022-11-24T04:13:47.954Z,101752.19
2022-11-24T04:14:49.641Z,101762.16
2022-11-24T04:15:52.158Z,101750.72
2022-11-24T04:16:53.976Z,101757.16
2022-11-24T04:17:56.514Z,101749.97
2022-11-24T04:18:58.577Z,101752.63
2022-11-24T04:20:00.351Z,101752.63
2022-11-24T04:21:02.176Z,101748.25
2022-11-24T04:22:03.896Z,101748.25
2022-11-24T04:23:06.017Z,101740.72
2022-11-24T04:24:07.805Z,101756.28
2022-11-24T04:25:10.743Z,101731.25
2022-11-24T04:26:12.936Z,101751.69
2022-11-24T04:27:14.671Z,101750.94
2022-11-24T04:28:16.563Z,101753.59
2022-11-24T04:29:18.271Z,101737.81
2022-11-24T04:30:21.588Z,101730.38
2022-11-24T04:31:23.265Z,101740.38
2022-11-24T04:32:25.142Z,101735.13
2022-11-24T04:33:26.822Z,101750.09
2022-11-24T04:34:28.527Z,101744.75
2022-11-24T04:35:30.401Z,101746.56
2022-11-24T04:36:32.205Z,101750.19
2022-11-24T04:37:34.927Z,101740.00
2022-11-24T04:39:24.688Z,101748.25
2022-11-24T04:39:58.385Z,101757.66
2022-11-24T04:41:04.271Z,101749.03
2022-11-24T04:42:06.313Z,101746.34
2022-11-24T04:43:09.351Z,101745.53
2022-11-24T04:44:11.119Z,101745.53
2022-11-24T04:45:12.890Z,101736.34
2022-11-24T04:46:14.611Z,101745.72
2022-11-24T04:47:20.245Z,101750.19
2022-11-24T04:48:22.194Z,101752.78
2022-11-24T04:49:24.002Z,101744.38
2022-11-24T04:50:25.776Z,101760.78
2022-11-24T04:51:27.647Z,101748.50
2022-11-24T04:52:30.209Z,101741.69
2022-11-24T04:53:32.157Z,101756.41
2022-11-24T04:54:34.084Z,101750.19
2022-11-24T04:55:38.741Z,101755.56
2022-11-24T04:56:41.889Z,101765.28
2022-11-24T04:57:43.893Z,101767.94
2022-11-24T04:58:48.793Z,101765.41
2022-11-24T04:59:51.556Z,101745.69
2022-11-24T05:00:53.300Z,101767.94
2022-11-24T05:01:55.036Z,101754.31
2022-11-24T05:02:57.042Z,101766.25
2022-11-24T05:03:59.641Z,101768.91
2022-11-24T05:05:01.610Z,101766.25
2022-11-24T05:06:03.415Z,101736.66
2022-11-24T05:07:05.589Z,101775.22
2022-11-24T05:08:07.384Z,101770.75
2022-11-24T05:09:09.122Z,101772.56
2022-11-24T05:10:28.962Z,101769.88
2022-11-24T05:11:30.712Z,101766.97
2022-11-24T05:12:32.433Z,101760.31
2022-11-24T05:13:34.553Z,101770.63
2022-11-24T05:14:36.443Z,101767.22
2022-11-24T05:15:40.404Z,101747.50
2022-11-24T05:16:42.215Z,101755.19
2022-11-24T05:17:43.999Z,101770.75
2022-11-24T05:18:46.121Z,101756.25
2022-11-24T05:19:47.830Z,101767.34
2022-11-24T05:20:49.661Z,101770.84
2022-11-24T05:21:52.334Z,101767.34
2022-11-24T05:22:54.058Z,101767.34
2022-11-24T05:23:55.806Z,101757.00
2022-11-24T05:24:57.606Z,101764.69
2022-11-24T05:26:03.542Z,101766.47
2022-11-24T05:27:05.227Z,101767.22
2022-11-24T05:28:11.821Z,101769.88
2022-11-24T05:29:13.549Z,101763.72
2022-11-24T05:30:15.264Z,101768.19
2022-11-24T05:31:17.029Z,101765.50
2022-11-24T05:32:18.792Z,101764.69
2022-11-24T05:33:23.046Z,101757.00
2022-11-24T05:34:24.776Z,101762.84
2022-11-24T05:35:26.542Z,101762.97
2022-11-24T05:36:46.517Z,101755.94
2022-11-24T05:37:48.467Z,101767.09
2022-11-24T05:38:50.197Z,101760.53
2022-11-24T05:39:51.922Z,101772.69
2022-11-24T05:40:53.656Z,101770.84
2022-11-24T05:41:55.333Z,101769.28
2022-11-24T05:42:57.201Z,101772.78
2022-11-24T05:43:58.969Z,101764.78
2022-11-24T05:45:00.755Z,101758.44
2022-11-24T05:46:02.640Z,101769.28
2022-11-24T05:47:04.502Z,101772.78
2022-11-24T05:48:08.829Z,101773.78
2022-11-24T05:49:10.500Z,101770.13
2022-11-24T05:50:14.839Z,101769.28
2022-11-24T05:51:17.029Z,101758.22
2022-11-24T05:52:18.776Z,101766.72
2022-11-24T05:53:20.485Z,101770.13
2022-11-24T05:54:22.174Z,101770.25
2022-11-24T05:55:23.929Z,101767.59
2022-11-24T05:56:25.706Z,101771.09
2022-11-24T05:57:27.671Z,101752.22
2022-11-24T05:58:29.422Z,101750.53
2022-11-24T05:59:31.217Z,101768.41
2022-11-24T06:00:34.317Z,101763.41
2022-11-24T06:01:36.041Z,101763.41
2022-11-24T06:02:38.099Z,101766.72
2022-11-24T06:03:39.879Z,101757.25
2022-11-24T06:04:41.620Z,101769.28
2022-11-24T06:05:47.157Z,101768.41
2022-11-24T06:06:48.886Z,101769.16
2022-11-24T06:07:51.170Z,101762.25
2022-11-24T06:08:53.024Z,101749.47
2022-11-24T06:09:54.693Z,101782.28
2022-11-24T06:11:17.260Z,101774.25
2022-11-24T06:12:20.506Z,101769.19
2022-11-24T06:13:22.325Z,101763.03
2022-11-24T06:14:24.369Z,101776.25
2022-11-24T06:15:26.029Z,101767.25
2022-11-24T06:16:27.820Z,101761.19
2022-11-24T06:17:29.651Z,101767.03
2022-11-24T06:18:31.279Z,101749.13
2022-11-24T06:19:32.964Z,101771.19
2022-11-24T06:20:34.796Z,101768.28
2022-11-24T06:21:36.547Z,101769.72
2022-11-24T06:22:38.296Z,101766.81
2022-11-24T06:23:40.487Z,101767.53
2022-11-24T06:24:42.159Z,101770.72
2022-11-24T06:25:47.382Z,101771.34
2022-11-24T06:26:53.118Z,101761.22
2022-11-24T06:27:55.068Z,101760.38
2022-11-24T06:28:56.824Z,101767.78
2022-11-24T06:29:58.587Z,101766.72
2022-11-24T06:31:04.859Z,101768.28
2022-11-24T06:32:06.640Z,101768.78
2022-11-24T06:33:08.308Z,101764.16
2022-11-24T06:34:11.687Z,101756.38
2022-11-24T06:35:13.923Z,101773.41
2022-11-24T06:36:16.259Z,101757.34
2022-11-24T06:37:17.965Z,101763.91
2022-11-24T06:38:24.195Z,101753.69
2022-11-24T06:39:26.157Z,101762.56
2022-11-24T06:40:27.808Z,101760.63
2022-11-24T06:41:29.502Z,101764.84
2022-11-24T06:42:31.143Z,101753.41
2022-11-24T06:43:35.785Z,101752.91
2022-11-24T06:44:37.544Z,101759.72
2022-11-24T06:45:39.428Z,101744.88
2022-11-24T06:46:41.124Z,101754.97
2022-11-24T06:47:42.956Z,101750.72
2022-11-24T06:48:44.647Z,101753.78
2022-11-24T06:49:46.345Z,101752.81
2022-11-24T06:50:48.029Z,101749.06
2022-11-24T06:51:49.858Z,101745.41
2022-11-24T06:52:51.540Z,101751.47
2022-11-24T06:53:53.519Z,101743.69
2022-11-24T06:54:55.358Z,101752.06
2022-11-24T06:56:01.998Z,101741.50
2022-11-24T06:57:03.764Z,101744.63
2022-11-24T06:58:05.440Z,101741.94
2022-11-24T06:59:07.177Z,101751.69
2022-11-24T07:00:09.522Z,101743.50
2022-11-24T07:01:22.326Z,101751.44
2022-11-24T07:02:24.543Z,101729.91
2022-11-24T07:03:26.383Z,101747.63
2022-11-24T07:04:28.144Z,101748.63
2022-11-24T07:05:30.108Z,101753.84
2022-11-24T07:06:31.756Z,101756.53
2022-11-24T07:07:33.477Z,101761.78
2022-11-24T07:08:35.332Z,101747.78
2022-11-24T07:09:37.020Z,101762.63
2022-11-24T07:10:38.926Z,101754.84
2022-11-24T07:11:41.436Z,101767.00
2022-11-24T07:12:43.100Z,101757.25
2022-11-24T07:13:45.686Z,101758.97
2022-11-24T07:14:47.369Z,101758.84
2022-11-24T07:15:49.078Z,101761.38
2022-11-24T07:16:50.769Z,101768.44
2022-11-24T07:17:52.509Z,101759.69
2022-11-24T07:18:55.080Z,101761.38
2022-11-24T07:19:56.731Z,101766.75
2022-11-24T07:20:58.512Z,101763.09
2022-11-24T07:22:00.197Z,101760.41
2022-11-24T07:23:01.892Z,101752.16
2022-11-24T07:24:04.205Z,101768.44
2022-11-24T07:25:09.599Z,101763.09
2022-11-24T07:26:11.423Z,101760.28
2022-11-24T07:27:13.180Z,101765.66
2022-11-24T07:28:14.889Z,101763.81
2022-11-24T07:29:16.591Z,101755.19
2022-11-24T07:30:18.384Z,101763.09
2022-11-24T07:31:22.445Z,101762.25
2022-11-24T07:32:24.277Z,101757.97
2022-11-24T07:33:26.242Z,101763.09
2022-11-24T07:34:27.912Z,101766.47
2022-11-24T07:35:30.531Z,101762.09
2022-11-24T07:36:32.239Z,101771.00
2022-11-24T07:37:34.109Z,101774.53
2022-11-24T07:38:36.409Z,101745.47
2022-11-24T07:39:38.049Z,101770.13
2022-11-24T07:40:39.717Z,101772.81
2022-11-24T07:41:41.453Z,101770.13
2022-11-24T07:42:43.186Z,101769.31
2022-11-24T07:43:45.460Z,101753.13
2022-11-24T07:44:47.161Z,101763.09
2022-11-24T07:45:52.957Z,101762.25
2022-11-24T07:46:54.704Z,101766.47
2022-11-24T07:47:56.366Z,101754.94
2022-11-24T07:48:58.157Z,101759.44
2022-11-24T07:49:59.869Z,101749.22
2022-11-24T07:51:02.701Z,101757.72
2022-11-24T07:52:05.156Z,101758.97
2022-11-24T07:53:06.814Z,101759.44
2022-11-24T07:54:08.866Z,101755.78
2022-11-24T07:55:11.092Z,101765.66
2022-11-24T07:56:13.246Z,101758.59
2022-11-24T07:57:15.000Z,101754.31
2022-11-24T07:58:16.655Z,101757.72
2022-11-24T07:59:18.426Z,101758.59
2022-11-24T08:00:20.344Z,101763.09
2022-11-24T08:01:22.176Z,101769.31
2022-11-24T08:02:24.198Z,101761.38
2022-11-24T08:03:26.084Z,101765.75
2022-11-24T08:04:27.774Z,101765.75
2022-11-24T08:05:29.537Z,101760.41
2022-11-24T08:06:39.683Z,101770.13
2022-11-24T08:07:42.558Z,101762.25
2022-11-24T08:08:44.689Z,101762.00
2022-11-24T08:09:46.465Z,101772.72
2022-11-24T08:10:48.192Z,101765.75
2022-11-24T08:11:49.821Z,101762.09
2022-11-24T08:12:51.587Z,101757.25
2022-11-24T08:13:53.873Z,101751.06
2022-11-24T08:14:55.656Z,101761.63
2022-11-24T08:15:57.341Z,101767.59
2022-11-24T08:16:59.069Z,101760.91
2022-11-24T08:18:02.717Z,101769.31
2022-11-24T08:19:04.429Z,101774.53
2022-11-24T08:20:06.982Z,101779.88
2022-11-24T08:21:13.020Z,101786.22
2022-11-24T08:22:14.760Z,101777.09
2022-11-24T08:23:16.480Z,101780.59
2022-11-24T08:24:18.201Z,101775.50
2022-11-24T08:25:20.225Z,101773.44
2022-11-24T08:26:23.087Z,101777.81
2022-11-24T08:27:24.801Z,101772.47
2022-11-24T08:28:26.510Z,101772.47
2022-11-24T08:29:29.631Z,101774.16
2022-11-24T08:30:31.845Z,101784.72
2022-11-24T08:31:35.510Z,101782.03
2022-11-24T08:32:37.248Z,101778.38
2022-11-24T08:33:39.984Z,101781.06
2022-11-24T08:34:41.692Z,101780.09
2022-11-24T08:35:43.372Z,101780.22
2022-11-24T08:36:45.105Z,101792.50
2022-11-24T08:37:47.103Z,101794.34
2022-11-24T08:38:53.697Z,101796.16
2022-11-24T08:39:55.504Z,101791.53
2022-11-24T08:41:01.871Z,101780.59
2022-11-24T08:42:03.668Z,101788.84
2022-11-24T08:43:05.412Z,101792.41
2022-11-24T08:44:08.459Z,101787.88
2022-11-24T08:45:20.485Z,101787.88
2022-11-24T08:46:23.942Z,101775.72
2022-11-24T08:47:25.820Z,101785.91
2022-11-24T08:48:27.946Z,101794.94
2022-11-24T08:49:29.660Z,101795.78
2022-11-24T08:50:31.435Z,101790.56
2022-11-24T08:51:33.819Z,101785.59
2022-11-24T08:52:35.807Z,101793.22
2022-11-24T08:53:38.022Z,101789.56
2022-11-24T08:54:40.915Z,101795.91
2022-11-24T08:55:42.581Z,101777.56
2022-11-24T08:56:44.861Z,101791.66
2022-11-24T08:57:46.536Z,101793.50
2022-11-24T08:58:48.367Z,101791.06
2022-11-24T08:59:50.183Z,101790.56
2022-11-24T09:00:51.897Z,101796.63
2022-11-24T09:01:53.704Z,101796.63
2022-11-24T09:02:57.076Z,101794.22
2022-11-24T09:03:58.995Z,101790.56
2022-11-24T09:05:00.704Z,101793.84
2022-11-24T09:06:02.668Z,101795.69
2022-11-24T09:07:04.880Z,101798.47
2022-11-24T09:08:06.655Z,101796.53
2022-11-24T09:09:10.019Z,101795.78
2022-11-24T09:10:12.039Z,101802.75
2022-11-24T09:11:15.331Z,101795.69
2022-11-24T09:12:17.038Z,101806.16
2022-11-24T09:13:18.849Z,101800.06
2022-11-24T09:14:20.704Z,101799.19
2022-11-24T09:15:22.952Z,101801.03
2022-11-24T09:16:27.375Z,101794.81
2022-11-24T09:17:29.118Z,101798.22
2022-11-24T09:18:30.847Z,101802.75
2022-11-24T09:19:32.944Z,101810.78
2022-11-24T09:20:34.930Z,101801.88
2022-11-24T09:21:39.472Z,101804.44
2022-11-24T09:22:43.244Z,101815.16
2022-11-24T09:23:48.684Z,101812.50
2022-11-24T09:24:50.455Z,101816.88
2022-11-24T09:25:52.141Z,101816.00
2022-11-24T09:26:55.456Z,101803.94
2022-11-24T09:27:57.477Z,101811.63
2022-11-24T09:29:01.143Z,101810.78
2022-11-24T09:30:03.602Z,101821.34
2022-11-24T09:31:08.214Z,101793.50
2022-11-24T09:32:10.411Z,101811.50
2022-11-24T09:33:12.142Z,101811.50
2022-11-24T09:34:15.648Z,101813.31
2022-11-24T09:35:17.696Z,101796.06
2022-11-24T09:36:20.417Z,101808.81
2022-11-24T09:37:22.188Z,101814.19
2022-11-24T09:38:24.182Z,101814.19
2022-11-24T09:39:25.854Z,101817.84
2022-11-24T09:40:27.517Z,101816.88
2022-11-24T09:41:38.418Z,101809.66
2022-11-24T09:43:01.790Z,101814.91
2022-11-24T09:44:28.000Z,101811.84
2022-11-24T09:46:03.785Z,101813.28
2022-11-24T09:47:20.848Z,101815.59
2022-11-24T09:48:40.801Z,101808.53
2022-11-24T09:49:58.366Z,101821.31
2022-11-24T09:51:03.761Z,101818.06
2022-11-24T09:52:12.822Z,101817.19
2022-11-24T09:53:33.249Z,101817.19
2022-11-24T09:54:37.513Z,101814.66
2022-11-24T09:55:49.616Z,101805.88
2022-11-24T09:56:52.556Z,101800.91
2022-11-24T09:58:15.630Z,101804.91
2022-11-24T09:59:20.527Z,101800.78
2022-11-24T10:00:22.232Z,101806.72
2022-11-24T10:01:32.629Z,101807.72
2022-11-24T10:02:34.422Z,101800.53
2022-11-24T10:03:45.552Z,101803.47
2022-11-24T10:04:47.477Z,101804.19
2022-11-24T10:05:51.452Z,101811.38
2022-11-24T10:07:08.072Z,101816.72
2022-11-24T10:08:17.187Z,101821.00
2022-11-24T10:09:21.818Z,101819.28
2022-11-24T10:10:28.516Z,101817.59
2022-11-24T10:11:57.543Z,101811.84
2022-11-24T10:13:35.831Z,101779.50
2022-11-24T10:15:04.765Z,101813.28
2022-11-24T10:16:42.507Z,101811.22
2022-11-24T10:18:09.353Z,101810.00
2022-11-24T10:19:37.127Z,101815.84
2022-11-24T10:20:57.167Z,101811.72
2022-11-24T10:22:08.019Z,101809.03
2022-11-24T10:23:15.583Z,101811.00
2022-11-24T10:24:37.396Z,101799.91
2022-11-24T10:25:59.225Z,101816.94
2022-11-24T10:27:16.119Z,101799.66
2022-11-24T10:28:18.058Z,101804.44
2022-11-24T10:29:39.229Z,101820.00
2022-11-24T10:30:41.466Z,101810.13
2022-11-24T10:31:45.455Z,101813.78
2022-11-24T10:32:49.788Z,101807.34
2022-11-24T10:33:51.909Z,101814.19
2022-11-24T10:34:59.105Z,101814.19
2022-11-24T10:36:12.188Z,101808.81
2022-11-24T10:37:22.447Z,101816.63
2022-11-24T10:38:52.773Z,101821.97
2022-11-24T10:40:05.862Z,101815.22
2022-11-24T10:41:13.461Z,101820.59
2022-11-24T10:42:27.923Z,101822.56
2022-11-24T10:43:29.869Z,101820.72
2022-11-24T10:44:31.740Z,101816.47
2022-11-24T10:45:33.529Z,101821.00
2022-11-24T10:46:39.537Z,101825.63
2022-11-24T10:47:43.865Z,101817.59
2022-11-24T10:48:57.768Z,101784.50
2022-11-24T10:50:04.472Z,101815.63
2022-11-24T10:51:38.974Z,101815.22
2022-11-24T10:52:45.054Z,101803.06
2022-11-24T10:53:48.355Z,101816.09
2022-11-24T10:55:04.219Z,101811.84
2022-11-24T10:56:06.210Z,101820.59
2022-11-24T10:57:08.285Z,101818.06
2022-11-24T10:58:23.526Z,101818.88
2022-11-24T10:59:25.132Z,101814.41
2022-11-24T11:00:26.753Z,101814.50
2022-11-24T11:01:33.139Z,101820.00
2022-11-24T11:02:40.325Z,101820.00
2022-11-24T11:03:55.030Z,101818.88
2022-11-24T11:04:57.165Z,101816.63
2022-11-24T11:06:13.888Z,101821.47
2022-11-24T11:07:19.718Z,101810.38
2022-11-24T11:08:30.307Z,101821.47
2022-11-24T11:09:32.229Z,101816.94
2022-11-24T11:10:34.227Z,101820.59
2022-11-24T11:11:38.711Z,101812.81
2022-11-24T11:12:44.919Z,101811.00
2022-11-24T11:14:03.922Z,101812.69
2022-11-24T11:15:29.343Z,101805.69
2022-11-24T11:16:37.168Z,101821.94
2022-11-24T11:17:39.497Z,101806.34
2022-11-24T11:18:48.910Z,101811.72
2022-11-24T11:19:56.998Z,101816.81
2022-11-24T11:21:04.043Z,101813.16
2022-11-24T11:22:12.053Z,101809.75
2022-11-24T11:23:20.491Z,101812.44
2022-11-24T11:24:22.236Z,101812.44
2022-11-24T11:25:31.010Z,101814.50
2022-11-24T11:26:36.497Z,101813.53
2022-11-24T11:27:39.759Z,101813.53
2022-11-24T11:28:41.523Z,101809.56
2022-11-24T11:31:21.339Z,101815.84
2022-11-24T11:34:23.475Z,101806.81
2022-11-24T11:35:32.286Z,101775.09
2022-11-24T11:36:34.615Z,101814.59
2022-11-24T11:37:36.410Z,101821.19
2022-11-24T11:38:39.968Z,101819.50
2022-11-24T11:39:48.853Z,101817.06
2022-11-24T11:40:51.737Z,101823.16
2022-11-24T11:42:45.450Z,101810.13
2022-11-24T11:43:41.701Z,101807.41
2022-11-24T11:45:11.768Z,101813.38
2022-11-24T11:46:17.930Z,101809.84
2022-11-24T11:47:31.714Z,101805.84
2022-11-24T11:48:43.091Z,101801.22
2022-11-24T11:49:48.481Z,101810.22
2022-11-24T11:52:43.622Z,101808.00
2022-11-24T11:53:57.567Z,101811.41
2022-11-24T11:55:20.981Z,101811.41
2022-11-24T11:56:33.040Z,101799.50
2022-11-24T11:57:53.083Z,101809.72
2022-11-24T11:59:40.386Z,101810.44
2022-11-24T12:00:50.987Z,101811.16
2022-11-24T12:02:03.325Z,101807.91
2022-11-24T12:03:26.453Z,101810.69
2022-11-24T12:04:58.564Z,101805.22
2022-11-24T12:06:14.297Z,101802.38
2022-11-24T12:07:34.424Z,101799.13
2022-11-24T12:10:42.043Z,101804.09
2022-11-24T12:12:08.911Z,101799.00
2022-11-24T12:13:42.490Z,101799.44
2022-11-24T12:15:21.272Z,101797.75
2022-11-24T12:16:38.130Z,101806.66
2022-11-24T12:17:46.915Z,101797.28
2022-11-24T12:19:00.692Z,101802.91
2022-11-24T12:20:31.758Z,101802.66
2022-11-24T12:21:53.591Z,101800.84
2022-11-24T12:23:11.158Z,101811.66
2022-11-24T12:24:40.061Z,101802.66
2022-11-24T12:25:50.983Z,101808.88
2022-11-24T12:26:52.658Z,101809.97